sensor_id;sensor_type;location;lat;lon;timestamp;temperature;humidity
8643;DHT22;4359;49.358;11.256;2022-12-18T00:01:45;-13.30;99.90
8643;DHT22;4359;49.358;11.256;2022-12-18T00:04:21;-13.50;99.90
8643;DHT22;4359;49.358;11.256;2022-12-18T00:06:47;-13.60;99.90
8643;DHT22;4359;49.358;11.256;2022-12-18T00:09:12;-13.70;99.90
8643;DHT22;4359;49.358;11.256;2022-12-18T00:11:38;-13.80;99.90
8643;DHT22;4359;49.358;11.256;2022-12-18T00:14:04;-13.70;99.90
8643;DHT22;4359;49.358;11.256;2022-12-18T00:16:29;-13.70;99.90
8643;DHT22;4359;49.358;11.256;2022-12-18T00:18:58;-13.70;99.90
8643;DHT22;4359;49.358;11.256;2022-12-18T00:21:24;-13.80;99.90
8643;DHT22;4359;49.358;11.256;2022-12-18T00:23:50;-13.80;99.90
8643;DHT22;4359;49.358;11.256;2022-12-18T00:26:19;-13.70;99.90
8643;DHT22;4359;49.358;11.256;2022-12-18T00:28:46;-13.70;99.90
8643;DHT22;4359;49.358;11.256;2022-12-18T00:31:16;-13.70;99.90
8643;DHT22;4359;49.358;11.256;2022-12-18T00:33:42;-13.80;99.90
8643;DHT22;4359;49.358;11.256;2022-12-18T00:36:18;-13.80;99.90
8643;DHT22;4359;49.358;11.256;2022-12-18T00:38:44;-13.90;99.90
8643;DHT22;4359;49.358;11.256;2022-12-18T00:41:10;-13.90;99.90
8643;DHT22;4359;49.358;11.256;2022-12-18T00:43:36;-14.00;99.90
8643;DHT22;4359;49.358;11.256;2022-12-18T00:46:01;-14.10;99.90
8643;DHT22;4359;49.358;11.256;2022-12-18T00:48:27;-14.20;99.90
8643;DHT22;4359;49.358;11.256;2022-12-18T00:50:53;-14.30;99.90
8643;DHT22;4359;49.358;11.256;2022-12-18T00:53:18;-14.20;99.90
8643;DHT22;4359;49.358;11.256;2022-12-18T00:55:44;-14.20;99.90
8643;DHT22;4359;49.358;11.256;2022-12-18T00:58:10;-14.30;99.90
8643;DHT22;4359;49.358;11.256;2022-12-18T01:00:36;-14.30;99.90
8643;DHT22;4359;49.358;11.256;2022-12-18T01:03:02;-14.40;99.90
8643;DHT22;4359;49.358;11.256;2022-12-18T01:05:27;-14.50;99.90
8643;DHT22;4359;49.358;11.256;2022-12-18T01:07:53;-14.50;99.90
8643;DHT22;4359;49.358;11.256;2022-12-18T01:10:18;-14.60;99.90
8643;DHT22;4359;49.358;11.256;2022-12-18T01:12:44;-14.60;99.90
8643;DHT22;4359;49.358;11.256;2022-12-18T01:15:10;-14.50;99.90
8643;DHT22;4359;49.358;11.256;2022-12-18T01:17:36;-14.40;99.90
8643;DHT22;4359;49.358;11.256;2022-12-18T01:20:02;-14.40;99.90
8643;DHT22;4359;49.358;11.256;2022-12-18T01:22:28;-14.50;99.90
8643;DHT22;4359;49.358;11.256;2022-12-18T01:24:53;-14.60;99.90
8643;DHT22;4359;49.358;11.256;2022-12-18T01:27:19;-14.60;99.90
8643;DHT22;4359;49.358;11.256;2022-12-18T01:29:44;-14.60;99.90
8643;DHT22;4359;49.358;11.256;2022-12-18T01:32:10;-14.60;99.90
8643;DHT22;4359;49.358;11.256;2022-12-18T01:34:36;-14.60;99.90
8643;DHT22;4359;49.358;11.256;2022-12-18T01:37:02;-14.70;99.90
8643;DHT22;4359;49.358;11.256;2022-12-18T01:39:28;-14.80;99.90
8643;DHT22;4359;49.358;11.256;2022-12-18T01:41:53;-14.80;99.90
8643;DHT22;4359;49.358;11.256;2022-12-18T01:47:36;-14.90;99.90
8643;DHT22;4359;49.358;11.256;2022-12-18T01:50:00;-14.90;99.90
8643;DHT22;4359;49.358;11.256;2022-12-18T01:52:29;-14.90;99.90
8643;DHT22;4359;49.358;11.256;2022-12-18T01:54:56;-14.90;99.90
8643;DHT22;4359;49.358;11.256;2022-12-18T01:57:21;-14.90;99.90
8643;DHT22;4359;49.358;11.256;2022-12-18T01:59:49;-14.90;99.90
8643;DHT22;4359;49.358;11.256;2022-12-18T02:02:16;-14.80;99.90
8643;DHT22;4359;49.358;11.256;2022-12-18T02:04:42;-14.70;99.90
8643;DHT22;4359;49.358;11.256;2022-12-18T02:07:19;-14.60;99.90
8643;DHT22;4359;49.358;11.256;2022-12-18T02:09:56;-14.50;99.90
8643;DHT22;4359;49.358;11.256;2022-12-18T02:12:24;-14.50;99.90
8643;DHT22;4359;49.358;11.256;2022-12-18T02:15:12;-14.40;99.90
8643;DHT22;4359;49.358;11.256;2022-12-18T02:17:42;-14.30;99.90
8643;DHT22;4359;49.358;11.256;2022-12-18T02:22:40;-14.30;99.90
8643;DHT22;4359;49.358;11.256;2022-12-18T02:25:16;-14.40;99.90
8643;DHT22;4359;49.358;11.256;2022-12-18T02:27:46;-14.40;99.90
8643;DHT22;4359;49.358;11.256;2022-12-18T02:30:13;-14.60;99.90
8643;DHT22;4359;49.358;11.256;2022-12-18T02:32:40;-14.50;99.90
8643;DHT22;4359;49.358;11.256;2022-12-18T02:35:09;-14.50;99.90
8643;DHT22;4359;49.358;11.256;2022-12-18T02:37:36;-14.40;99.90
8643;DHT22;4359;49.358;11.256;2022-12-18T02:40:04;-14.20;99.90
8643;DHT22;4359;49.358;11.256;2022-12-18T02:42:30;-14.10;99.90
8643;DHT22;4359;49.358;11.256;2022-12-18T02:44:56;-13.90;99.90
8643;DHT22;4359;49.358;11.256;2022-12-18T02:47:24;-13.70;99.90
8643;DHT22;4359;49.358;11.256;2022-12-18T02:57:49;-13.00;99.90
8643;DHT22;4359;49.358;11.256;2022-12-18T03:00:17;-12.90;99.90
8643;DHT22;4359;49.358;11.256;2022-12-18T03:02:48;-12.60;99.90
8643;DHT22;4359;49.358;11.256;2022-12-18T03:05:20;-12.50;99.90
8643;DHT22;4359;49.358;11.256;2022-12-18T03:07:57;-12.40;99.90
8643;DHT22;4359;49.358;11.256;2022-12-18T03:10:26;-12.20;99.90
8643;DHT22;4359;49.358;11.256;2022-12-18T03:12:53;-12.10;99.90
8643;DHT22;4359;49.358;11.256;2022-12-18T03:15:25;-12.00;99.90
8643;DHT22;4359;49.358;11.256;2022-12-18T03:17:54;-11.80;99.90
8643;DHT22;4359;49.358;11.256;2022-12-18T03:20:21;-11.70;99.90
8643;DHT22;4359;49.358;11.256;2022-12-18T03:22:50;-11.50;99.90
8643;DHT22;4359;49.358;11.256;2022-12-18T03:25:16;-11.40;99.90
8643;DHT22;4359;49.358;11.256;2022-12-18T03:27:45;-11.30;99.90
8643;DHT22;4359;49.358;11.256;2022-12-18T03:30:12;-11.20;99.90
8643;DHT22;4359;49.358;11.256;2022-12-18T03:35:04;-11.00;99.90
8643;DHT22;4359;49.358;11.256;2022-12-18T03:37:31;-10.90;99.90
8643;DHT22;4359;49.358;11.256;2022-12-18T03:39:56;-10.80;99.90
8643;DHT22;4359;49.358;11.256;2022-12-18T03:49:57;-10.50;99.90
8643;DHT22;4359;49.358;11.256;2022-12-18T03:52:40;-10.40;99.90
8643;DHT22;4359;49.358;11.256;2022-12-18T03:55:08;-10.40;99.90
8643;DHT22;4359;49.358;11.256;2022-12-18T03:57:34;-10.20;99.90
8643;DHT22;4359;49.358;11.256;2022-12-18T04:00:03;-10.20;99.90
8643;DHT22;4359;49.358;11.256;2022-12-18T04:02:28;-10.10;99.90
8643;DHT22;4359;49.358;11.256;2022-12-18T04:04:56;-10.10;99.90
8643;DHT22;4359;49.358;11.256;2022-12-18T04:07:23;-10.00;99.90
8643;DHT22;4359;49.358;11.256;2022-12-18T04:09:49;-9.90;99.90
8643;DHT22;4359;49.358;11.256;2022-12-18T04:12:15;-9.80;99.90
8643;DHT22;4359;49.358;11.256;2022-12-18T04:14:41;-9.60;99.90
8643;DHT22;4359;49.358;11.256;2022-12-18T04:17:06;-9.60;99.90
8643;DHT22;4359;49.358;11.256;2022-12-18T04:19:32;-9.50;99.90
8643;DHT22;4359;49.358;11.256;2022-12-18T04:21:57;-9.40;99.90
8643;DHT22;4359;49.358;11.256;2022-12-18T04:24:23;-9.40;99.90
8643;DHT22;4359;49.358;11.256;2022-12-18T04:26:48;-9.30;99.90
8643;DHT22;4359;49.358;11.256;2022-12-18T04:29:14;-9.20;99.90
8643;DHT22;4359;49.358;11.256;2022-12-18T04:31:39;-9.00;99.90
8643;DHT22;4359;49.358;11.256;2022-12-18T04:34:05;-8.90;99.90
8643;DHT22;4359;49.358;11.256;2022-12-18T04:38:58;-8.70;99.90
8643;DHT22;4359;49.358;11.256;2022-12-18T04:41:24;-8.60;99.90
8643;DHT22;4359;49.358;11.256;2022-12-18T04:43:49;-8.60;99.90
8643;DHT22;4359;49.358;11.256;2022-12-18T04:46:15;-8.50;99.90
8643;DHT22;4359;49.358;11.256;2022-12-18T04:48:40;-8.20;99.90
8643;DHT22;4359;49.358;11.256;2022-12-18T04:51:06;-8.00;99.90
8643;DHT22;4359;49.358;11.256;2022-12-18T04:53:32;-7.80;99.90
8643;DHT22;4359;49.358;11.256;2022-12-18T04:58:29;-7.50;99.90
8643;DHT22;4359;49.358;11.256;2022-12-18T05:00:54;-7.40;99.90
8643;DHT22;4359;49.358;11.256;2022-12-18T05:03:20;-7.30;99.90
8643;DHT22;4359;49.358;11.256;2022-12-18T05:05:48;-7.10;99.90
8643;DHT22;4359;49.358;11.256;2022-12-18T05:08:14;-7.00;99.90
8643;DHT22;4359;49.358;11.256;2022-12-18T05:10:39;-6.80;99.90
8643;DHT22;4359;49.358;11.256;2022-12-18T05:13:05;-6.70;99.90
8643;DHT22;4359;49.358;11.256;2022-12-18T05:15:31;-6.60;99.90
8643;DHT22;4359;49.358;11.256;2022-12-18T05:17:57;-6.40;99.90
8643;DHT22;4359;49.358;11.256;2022-12-18T05:20:23;-6.30;99.90
8643;DHT22;4359;49.358;11.256;2022-12-18T05:22:48;-6.30;99.90
8643;DHT22;4359;49.358;11.256;2022-12-18T05:25:14;-6.20;99.90
8643;DHT22;4359;49.358;11.256;2022-12-18T05:27:40;-6.20;99.90
8643;DHT22;4359;49.358;11.256;2022-12-18T05:30:06;-6.10;99.90
8643;DHT22;4359;49.358;11.256;2022-12-18T05:32:31;-6.10;99.90
8643;DHT22;4359;49.358;11.256;2022-12-18T05:34:57;-6.10;99.90
8643;DHT22;4359;49.358;11.256;2022-12-18T05:37:22;-6.00;99.90
8643;DHT22;4359;49.358;11.256;2022-12-18T05:39:48;-6.00;99.90
8643;DHT22;4359;49.358;11.256;2022-12-18T05:42:14;-6.00;99.90
8643;DHT22;4359;49.358;11.256;2022-12-18T05:44:39;-6.00;99.90
8643;DHT22;4359;49.358;11.256;2022-12-18T05:47:05;-6.00;99.90
8643;DHT22;4359;49.358;11.256;2022-12-18T05:49:30;-6.00;99.90
8643;DHT22;4359;49.358;11.256;2022-12-18T05:51:56;-5.90;99.90
8643;DHT22;4359;49.358;11.256;2022-12-18T05:54:21;-5.90;99.90
8643;DHT22;4359;49.358;11.256;2022-12-18T05:56:47;-5.80;99.90
8643;DHT22;4359;49.358;11.256;2022-12-18T05:59:12;-5.90;99.90
8643;DHT22;4359;49.358;11.256;2022-12-18T06:01:38;-5.90;99.90
8643;DHT22;4359;49.358;11.256;2022-12-18T06:04:03;-5.80;99.90
8643;DHT22;4359;49.358;11.256;2022-12-18T06:06:29;-5.90;99.90
8643;DHT22;4359;49.358;11.256;2022-12-18T06:08:55;-5.80;99.90
8643;DHT22;4359;49.358;11.256;2022-12-18T06:11:22;-5.80;99.90
8643;DHT22;4359;49.358;11.256;2022-12-18T06:13:55;-5.80;99.90
8643;DHT22;4359;49.358;11.256;2022-12-18T06:16:21;-5.80;99.90
8643;DHT22;4359;49.358;11.256;2022-12-18T06:18:46;-5.70;99.90
8643;DHT22;4359;49.358;11.256;2022-12-18T06:21:12;-5.70;99.90
8643;DHT22;4359;49.358;11.256;2022-12-18T06:23:37;-5.70;99.90
8643;DHT22;4359;49.358;11.256;2022-12-18T06:26:09;-5.60;99.90
8643;DHT22;4359;49.358;11.256;2022-12-18T06:28:34;-5.60;99.90
8643;DHT22;4359;49.358;11.256;2022-12-18T06:31:00;-5.60;99.90
8643;DHT22;4359;49.358;11.256;2022-12-18T06:33:27;-5.60;99.90
8643;DHT22;4359;49.358;11.256;2022-12-18T06:36:00;-5.50;99.90
8643;DHT22;4359;49.358;11.256;2022-12-18T06:38:25;-5.50;99.90
8643;DHT22;4359;49.358;11.256;2022-12-18T06:40:51;-5.50;99.90
8643;DHT22;4359;49.358;11.256;2022-12-18T06:43:16;-5.50;99.90
8643;DHT22;4359;49.358;11.256;2022-12-18T06:45:42;-5.50;99.90
8643;DHT22;4359;49.358;11.256;2022-12-18T06:48:07;-5.50;99.90
8643;DHT22;4359;49.358;11.256;2022-12-18T06:50:33;-5.40;99.90
8643;DHT22;4359;49.358;11.256;2022-12-18T06:52:58;-5.40;99.90
8643;DHT22;4359;49.358;11.256;2022-12-18T06:55:24;-5.40;99.90
8643;DHT22;4359;49.358;11.256;2022-12-18T06:57:50;-5.30;99.90
8643;DHT22;4359;49.358;11.256;2022-12-18T07:00:15;-5.30;99.90
8643;DHT22;4359;49.358;11.256;2022-12-18T07:02:41;-5.30;99.90
8643;DHT22;4359;49.358;11.256;2022-12-18T07:05:06;-5.30;99.90
8643;DHT22;4359;49.358;11.256;2022-12-18T07:07:33;-5.30;99.90
8643;DHT22;4359;49.358;11.256;2022-12-18T07:09:58;-5.30;99.90
8643;DHT22;4359;49.358;11.256;2022-12-18T07:12:24;-5.30;99.90
8643;DHT22;4359;49.358;11.256;2022-12-18T07:14:50;-5.30;99.90
8643;DHT22;4359;49.358;11.256;2022-12-18T07:17:15;-5.30;99.90
8643;DHT22;4359;49.358;11.256;2022-12-18T07:19:41;-5.20;99.90
8643;DHT22;4359;49.358;11.256;2022-12-18T07:22:06;-5.20;99.90
8643;DHT22;4359;49.358;11.256;2022-12-18T07:24:32;-5.20;99.90
8643;DHT22;4359;49.358;11.256;2022-12-18T07:26:58;-5.20;99.90
8643;DHT22;4359;49.358;11.256;2022-12-18T07:29:24;-5.20;99.90
8643;DHT22;4359;49.358;11.256;2022-12-18T07:31:49;-5.10;99.90
8643;DHT22;4359;49.358;11.256;2022-12-18T07:34:15;-5.20;99.90
8643;DHT22;4359;49.358;11.256;2022-12-18T07:36:40;-5.10;99.90
8643;DHT22;4359;49.358;11.256;2022-12-18T07:39:06;-5.20;99.90
8643;DHT22;4359;49.358;11.256;2022-12-18T07:41:31;-5.20;99.90
8643;DHT22;4359;49.358;11.256;2022-12-18T07:43:57;-5.20;99.90
8643;DHT22;4359;49.358;11.256;2022-12-18T07:46:23;-5.10;99.90
8643;DHT22;4359;49.358;11.256;2022-12-18T07:48:48;-5.00;99.90
8643;DHT22;4359;49.358;11.256;2022-12-18T07:51:14;-5.00;99.90
8643;DHT22;4359;49.358;11.256;2022-12-18T07:53:39;-5.00;99.90
8643;DHT22;4359;49.358;11.256;2022-12-18T07:56:07;-5.00;99.90
8643;DHT22;4359;49.358;11.256;2022-12-18T07:58:33;-4.90;99.90
8643;DHT22;4359;49.358;11.256;2022-12-18T08:01:06;-4.90;99.90
8643;DHT22;4359;49.358;11.256;2022-12-18T08:03:32;-4.90;99.90
8643;DHT22;4359;49.358;11.256;2022-12-18T08:06:04;-4.80;99.90
8643;DHT22;4359;49.358;11.256;2022-12-18T08:08:30;-4.80;99.90
8643;DHT22;4359;49.358;11.256;2022-12-18T08:10:56;-4.80;99.90
8643;DHT22;4359;49.358;11.256;2022-12-18T08:13:21;-4.70;99.90
8643;DHT22;4359;49.358;11.256;2022-12-18T08:15:55;-4.70;99.90
8643;DHT22;4359;49.358;11.256;2022-12-18T08:18:20;-4.70;99.90
8643;DHT22;4359;49.358;11.256;2022-12-18T08:20:46;-4.70;99.90
8643;DHT22;4359;49.358;11.256;2022-12-18T08:23:11;-4.60;99.90
8643;DHT22;4359;49.358;11.256;2022-12-18T08:25:37;-4.70;99.90
8643;DHT22;4359;49.358;11.256;2022-12-18T08:28:02;-4.60;99.90
8643;DHT22;4359;49.358;11.256;2022-12-18T08:30:28;-4.50;99.90
8643;DHT22;4359;49.358;11.256;2022-12-18T08:32:53;-4.50;99.90
8643;DHT22;4359;49.358;11.256;2022-12-18T08:35:19;-4.50;99.90
8643;DHT22;4359;49.358;11.256;2022-12-18T08:37:44;-4.50;99.90
8643;DHT22;4359;49.358;11.256;2022-12-18T08:40:10;-4.50;99.90
8643;DHT22;4359;49.358;11.256;2022-12-18T08:42:36;-4.40;99.90
8643;DHT22;4359;49.358;11.256;2022-12-18T08:45:20;-4.40;99.90
8643;DHT22;4359;49.358;11.256;2022-12-18T08:47:45;-4.30;99.90
8643;DHT22;4359;49.358;11.256;2022-12-18T08:50:11;-4.30;99.90
8643;DHT22;4359;49.358;11.256;2022-12-18T08:52:37;-4.40;99.90
8643;DHT22;4359;49.358;11.256;2022-12-18T08:55:03;-4.40;99.90
8643;DHT22;4359;49.358;11.256;2022-12-18T08:57:28;-4.30;99.90
8643;DHT22;4359;49.358;11.256;2022-12-18T08:59:54;-4.20;99.90
8643;DHT22;4359;49.358;11.256;2022-12-18T09:02:19;-4.30;99.90
8643;DHT22;4359;49.358;11.256;2022-12-18T09:04:46;-4.30;99.90
8643;DHT22;4359;49.358;11.256;2022-12-18T09:07:12;-4.20;99.90
8643;DHT22;4359;49.358;11.256;2022-12-18T09:09:38;-4.30;99.90
8643;DHT22;4359;49.358;11.256;2022-12-18T09:12:03;-4.30;99.90
8643;DHT22;4359;49.358;11.256;2022-12-18T09:14:29;-4.20;99.90
8643;DHT22;4359;49.358;11.256;2022-12-18T09:16:54;-4.20;99.90
8643;DHT22;4359;49.358;11.256;2022-12-18T09:19:20;-4.20;99.90
8643;DHT22;4359;49.358;11.256;2022-12-18T09:21:45;-4.30;99.90
8643;DHT22;4359;49.358;11.256;2022-12-18T09:24:11;-4.30;99.90
8643;DHT22;4359;49.358;11.256;2022-12-18T09:26:37;-4.30;99.90
8643;DHT22;4359;49.358;11.256;2022-12-18T09:29:03;-4.20;99.90
8643;DHT22;4359;49.358;11.256;2022-12-18T09:31:28;-4.10;99.90
8643;DHT22;4359;49.358;11.256;2022-12-18T09:33:55;-4.10;99.90
8643;DHT22;4359;49.358;11.256;2022-12-18T09:36:20;-4.20;99.90
8643;DHT22;4359;49.358;11.256;2022-12-18T09:38:46;-4.30;99.90
8643;DHT22;4359;49.358;11.256;2022-12-18T09:41:29;-4.30;99.90
8643;DHT22;4359;49.358;11.256;2022-12-18T09:44:00;-4.30;99.90
8643;DHT22;4359;49.358;11.256;2022-12-18T09:46:27;-4.40;99.90
8643;DHT22;4359;49.358;11.256;2022-12-18T09:48:54;-4.30;99.90
8643;DHT22;4359;49.358;11.256;2022-12-18T09:51:22;-4.30;99.90
8643;DHT22;4359;49.358;11.256;2022-12-18T09:53:50;-4.20;99.90
8643;DHT22;4359;49.358;11.256;2022-12-18T09:56:18;-4.20;99.90
8643;DHT22;4359;49.358;11.256;2022-12-18T09:58:55;-4.00;99.90
8643;DHT22;4359;49.358;11.256;2022-12-18T10:01:22;-3.90;99.90
8643;DHT22;4359;49.358;11.256;2022-12-18T10:03:49;-3.80;99.90
8643;DHT22;4359;49.358;11.256;2022-12-18T10:06:17;-3.80;99.90
8643;DHT22;4359;49.358;11.256;2022-12-18T10:16:50;-3.90;99.90
8643;DHT22;4359;49.358;11.256;2022-12-18T10:27:21;-3.80;99.90
8643;DHT22;4359;49.358;11.256;2022-12-18T10:29:45;-3.80;99.90
8643;DHT22;4359;49.358;11.256;2022-12-18T10:32:21;-3.70;99.90
8643;DHT22;4359;49.358;11.256;2022-12-18T10:34:48;-3.70;99.90
8643;DHT22;4359;49.358;11.256;2022-12-18T10:37:18;-3.60;99.90
8643;DHT22;4359;49.358;11.256;2022-12-18T10:39:44;-3.50;99.90
8643;DHT22;4359;49.358;11.256;2022-12-18T10:42:11;-3.40;99.90
8643;DHT22;4359;49.358;11.256;2022-12-18T10:44:39;-3.30;99.90
8643;DHT22;4359;49.358;11.256;2022-12-18T10:47:06;-3.40;99.90
8643;DHT22;4359;49.358;11.256;2022-12-18T10:49:36;-3.40;99.90
8643;DHT22;4359;49.358;11.256;2022-12-18T10:52:21;-3.30;99.90
8643;DHT22;4359;49.358;11.256;2022-12-18T10:54:58;-3.20;99.90
8643;DHT22;4359;49.358;11.256;2022-12-18T11:00:21;-2.90;99.90
8643;DHT22;4359;49.358;11.256;2022-12-18T11:02:43;-2.60;99.90
8643;DHT22;4359;49.358;11.256;2022-12-18T11:07:53;-2.50;99.90
8643;DHT22;4359;49.358;11.256;2022-12-18T11:10:20;-2.40;99.90
8643;DHT22;4359;49.358;11.256;2022-12-18T11:12:46;-2.50;99.90
8643;DHT22;4359;49.358;11.256;2022-12-18T11:15:16;-2.40;99.90
8643;DHT22;4359;49.358;11.256;2022-12-18T11:17:42;-2.10;99.90
8643;DHT22;4359;49.358;11.256;2022-12-18T11:20:22;-2.20;99.90
8643;DHT22;4359;49.358;11.256;2022-12-18T11:23:22;-2.10;99.90
8643;DHT22;4359;49.358;11.256;2022-12-18T11:25:40;-2.10;99.90
8643;DHT22;4359;49.358;11.256;2022-12-18T11:31:09;-2.20;99.90
8643;DHT22;4359;49.358;11.256;2022-12-18T11:33:40;-2.40;99.90
8643;DHT22;4359;49.358;11.256;2022-12-18T11:36:07;-2.60;99.90
8643;DHT22;4359;49.358;11.256;2022-12-18T11:38:34;-2.80;99.90
8643;DHT22;4359;49.358;11.256;2022-12-18T11:43:38;-2.50;99.90
8643;DHT22;4359;49.358;11.256;2022-12-18T11:46:06;-2.30;99.90
8643;DHT22;4359;49.358;11.256;2022-12-18T11:48:34;-2.20;99.90
8643;DHT22;4359;49.358;11.256;2022-12-18T11:51:02;-2.30;99.90
8643;DHT22;4359;49.358;11.256;2022-12-18T11:53:30;-2.40;99.90
8643;DHT22;4359;49.358;11.256;2022-12-18T11:58:44;-2.40;99.90
8643;DHT22;4359;49.358;11.256;2022-12-18T12:06:25;-2.10;99.90
8643;DHT22;4359;49.358;11.256;2022-12-18T12:14:00;-2.00;99.90
8643;DHT22;4359;49.358;11.256;2022-12-18T12:16:36;-2.00;99.90
8643;DHT22;4359;49.358;11.256;2022-12-18T12:19:10;-2.10;99.90
8643;DHT22;4359;49.358;11.256;2022-12-18T12:21:50;-2.20;99.90
8643;DHT22;4359;49.358;11.256;2022-12-18T12:35:15;-1.80;99.90
8643;DHT22;4359;49.358;11.256;2022-12-18T12:40:24;-1.20;99.90
8643;DHT22;4359;49.358;11.256;2022-12-18T12:42:53;-1.30;99.90
8643;DHT22;4359;49.358;11.256;2022-12-18T12:51:04;-1.50;99.90
8643;DHT22;4359;49.358;11.256;2022-12-18T12:53:35;-1.40;99.90
8643;DHT22;4359;49.358;11.256;2022-12-18T12:56:02;-1.50;99.90
8643;DHT22;4359;49.358;11.256;2022-12-18T13:06:09;-1.80;99.90
8643;DHT22;4359;49.358;11.256;2022-12-18T13:08:58;-1.80;99.90
8643;DHT22;4359;49.358;11.256;2022-12-18T13:14:31;-2.20;99.90
8643;DHT22;4359;49.358;11.256;2022-12-18T13:19:42;-2.20;99.90
8643;DHT22;4359;49.358;11.256;2022-12-18T13:22:24;-2.10;99.90
8643;DHT22;4359;49.358;11.256;2022-12-18T13:24:50;-1.90;99.90
8643;DHT22;4359;49.358;11.256;2022-12-18T13:38:23;-1.90;99.90
8643;DHT22;4359;49.358;11.256;2022-12-18T13:40:58;-2.10;99.90
8643;DHT22;4359;49.358;11.256;2022-12-18T13:43:46;-2.20;99.90
8643;DHT22;4359;49.358;11.256;2022-12-18T13:46:29;-2.20;99.90
8643;DHT22;4359;49.358;11.256;2022-12-18T13:51:23;-2.60;99.90
8643;DHT22;4359;49.358;11.256;2022-12-18T13:56:34;-2.60;99.90
8643;DHT22;4359;49.358;11.256;2022-12-18T13:59:03;-2.70;99.90
8643;DHT22;4359;49.358;11.256;2022-12-18T14:01:28;-2.60;99.90
8643;DHT22;4359;49.358;11.256;2022-12-18T14:04:10;-2.70;99.90
8643;DHT22;4359;49.358;11.256;2022-12-18T14:06:36;-2.80;99.90
8643;DHT22;4359;49.358;11.256;2022-12-18T14:09:02;-2.80;99.90
8643;DHT22;4359;49.358;11.256;2022-12-18T14:11:28;-2.90;99.90
8643;DHT22;4359;49.358;11.256;2022-12-18T14:13:54;-3.00;99.90
8643;DHT22;4359;49.358;11.256;2022-12-18T14:16:19;-3.00;99.90
8643;DHT22;4359;49.358;11.256;2022-12-18T14:18:48;-3.10;99.90
8643;DHT22;4359;49.358;11.256;2022-12-18T14:21:24;-3.10;99.90
8643;DHT22;4359;49.358;11.256;2022-12-18T14:24:11;-3.20;99.90
8643;DHT22;4359;49.358;11.256;2022-12-18T14:26:37;-3.20;99.90
8643;DHT22;4359;49.358;11.256;2022-12-18T14:32:03;-3.30;99.90
8643;DHT22;4359;49.358;11.256;2022-12-18T14:34:29;-3.40;99.90
8643;DHT22;4359;49.358;11.256;2022-12-18T14:36:54;-3.40;99.90
8643;DHT22;4359;49.358;11.256;2022-12-18T14:39:21;-3.40;99.90
8643;DHT22;4359;49.358;11.256;2022-12-18T14:41:50;-3.50;99.90
8643;DHT22;4359;49.358;11.256;2022-12-18T14:44:15;-3.50;99.90
8643;DHT22;4359;49.358;11.256;2022-12-18T14:46:42;-3.50;99.90
8643;DHT22;4359;49.358;11.256;2022-12-18T14:49:22;-3.60;99.90
8643;DHT22;4359;49.358;11.256;2022-12-18T14:51:49;-3.60;99.90
8643;DHT22;4359;49.358;11.256;2022-12-18T14:54:16;-3.70;99.90
8643;DHT22;4359;49.358;11.256;2022-12-18T14:56:44;-3.80;99.90
8643;DHT22;4359;49.358;11.256;2022-12-18T15:01:45;-4.00;99.90
8643;DHT22;4359;49.358;11.256;2022-12-18T15:04:23;-4.00;99.90
8643;DHT22;4359;49.358;11.256;2022-12-18T15:06:50;-4.10;99.90
8643;DHT22;4359;49.358;11.256;2022-12-18T15:09:27;-4.20;99.90
8643;DHT22;4359;49.358;11.256;2022-12-18T15:11:59;-4.30;99.90
8643;DHT22;4359;49.358;11.256;2022-12-18T15:14:32;-4.40;99.90
8643;DHT22;4359;49.358;11.256;2022-12-18T15:17:00;-4.40;99.90
8643;DHT22;4359;49.358;11.256;2022-12-18T15:19:33;-4.50;99.90
8643;DHT22;4359;49.358;11.256;2022-12-18T15:22:00;-4.40;99.90
8643;DHT22;4359;49.358;11.256;2022-12-18T15:24:27;-4.50;99.90
8643;DHT22;4359;49.358;11.256;2022-12-18T15:26:54;-4.70;99.90
8643;DHT22;4359;49.358;11.256;2022-12-18T15:29:21;-4.70;99.90
8643;DHT22;4359;49.358;11.256;2022-12-18T15:32:03;-4.80;99.90
8643;DHT22;4359;49.358;11.256;2022-12-18T15:34:29;-4.90;99.90
8643;DHT22;4359;49.358;11.256;2022-12-18T15:36:55;-4.90;99.90
8643;DHT22;4359;49.358;11.256;2022-12-18T15:39:20;-4.80;99.90
8643;DHT22;4359;49.358;11.256;2022-12-18T15:41:46;-4.90;99.90
8643;DHT22;4359;49.358;11.256;2022-12-18T15:44:30;-5.00;99.90
8643;DHT22;4359;49.358;11.256;2022-12-18T15:46:56;-5.10;99.90
8643;DHT22;4359;49.358;11.256;2022-12-18T15:49:22;-5.00;99.90
8643;DHT22;4359;49.358;11.256;2022-12-18T15:51:49;-5.10;99.90
8643;DHT22;4359;49.358;11.256;2022-12-18T15:54:16;-5.10;99.90
8643;DHT22;4359;49.358;11.256;2022-12-18T15:56:42;-5.20;99.90
8643;DHT22;4359;49.358;11.256;2022-12-18T15:59:26;-5.30;99.90
8643;DHT22;4359;49.358;11.256;2022-12-18T16:01:52;-5.30;99.90
8643;DHT22;4359;49.358;11.256;2022-12-18T16:04:18;-5.20;99.90
8643;DHT22;4359;49.358;11.256;2022-12-18T16:06:45;-5.20;99.90
8643;DHT22;4359;49.358;11.256;2022-12-18T16:09:11;-5.20;99.90
8643;DHT22;4359;49.358;11.256;2022-12-18T16:11:37;-5.20;99.90
8643;DHT22;4359;49.358;11.256;2022-12-18T16:16:29;-5.20;99.90
8643;DHT22;4359;49.358;11.256;2022-12-18T16:18:55;-5.20;99.90
8643;DHT22;4359;49.358;11.256;2022-12-18T16:21:20;-5.20;99.90
8643;DHT22;4359;49.358;11.256;2022-12-18T16:23:46;-5.30;99.90
8643;DHT22;4359;49.358;11.256;2022-12-18T16:26:12;-5.40;99.90
8643;DHT22;4359;49.358;11.256;2022-12-18T16:28:37;-5.30;99.90
8643;DHT22;4359;49.358;11.256;2022-12-18T16:31:03;-5.30;99.90
8643;DHT22;4359;49.358;11.256;2022-12-18T16:33:28;-5.30;99.90
8643;DHT22;4359;49.358;11.256;2022-12-18T16:35:54;-5.30;99.90
8643;DHT22;4359;49.358;11.256;2022-12-18T16:38:19;-5.40;99.90
8643;DHT22;4359;49.358;11.256;2022-12-18T16:40:45;-5.40;99.90
8643;DHT22;4359;49.358;11.256;2022-12-18T16:43:29;-5.30;99.90
8643;DHT22;4359;49.358;11.256;2022-12-18T16:45:54;-5.30;99.90
8643;DHT22;4359;49.358;11.256;2022-12-18T16:48:23;-5.30;99.90
8643;DHT22;4359;49.358;11.256;2022-12-18T16:50:49;-5.40;99.90
8643;DHT22;4359;49.358;11.256;2022-12-18T16:53:14;-5.40;99.90
8643;DHT22;4359;49.358;11.256;2022-12-18T16:55:40;-5.50;99.90
8643;DHT22;4359;49.358;11.256;2022-12-18T16:58:05;-5.60;99.90
8643;DHT22;4359;49.358;11.256;2022-12-18T17:00:31;-5.70;99.90
8643;DHT22;4359;49.358;11.256;2022-12-18T17:02:56;-5.80;99.90
8643;DHT22;4359;49.358;11.256;2022-12-18T17:05:22;-5.90;99.90
8643;DHT22;4359;49.358;11.256;2022-12-18T17:07:47;-5.90;99.90
8643;DHT22;4359;49.358;11.256;2022-12-18T17:10:13;-6.00;99.90
8643;DHT22;4359;49.358;11.256;2022-12-18T17:12:38;-6.00;99.90
8643;DHT22;4359;49.358;11.256;2022-12-18T17:15:04;-6.10;99.90
8643;DHT22;4359;49.358;11.256;2022-12-18T17:17:30;-6.20;99.90
8643;DHT22;4359;49.358;11.256;2022-12-18T17:19:55;-6.20;99.90
8643;DHT22;4359;49.358;11.256;2022-12-18T17:22:21;-6.20;99.90
8643;DHT22;4359;49.358;11.256;2022-12-18T17:24:47;-6.10;99.90
8643;DHT22;4359;49.358;11.256;2022-12-18T17:27:13;-6.10;99.90
8643;DHT22;4359;49.358;11.256;2022-12-18T17:29:38;-6.10;99.90
8643;DHT22;4359;49.358;11.256;2022-12-18T17:32:04;-6.10;99.90
8643;DHT22;4359;49.358;11.256;2022-12-18T17:34:29;-6.20;99.90
8643;DHT22;4359;49.358;11.256;2022-12-18T17:36:55;-6.20;99.90
8643;DHT22;4359;49.358;11.256;2022-12-18T17:39:20;-6.20;99.90
8643;DHT22;4359;49.358;11.256;2022-12-18T17:41:46;-6.20;99.90
8643;DHT22;4359;49.358;11.256;2022-12-18T17:44:12;-6.30;99.90
8643;DHT22;4359;49.358;11.256;2022-12-18T17:46:37;-6.30;99.90
8643;DHT22;4359;49.358;11.256;2022-12-18T17:49:03;-6.30;99.90
8643;DHT22;4359;49.358;11.256;2022-12-18T17:51:29;-6.30;99.90